createdAt,value
2023-02-13T00:00:17.848Z,25.13
2023-02-13T00:02:44.990Z,24.25
2023-02-13T00:05:11.850Z,24.05
2023-02-13T00:07:38.508Z,22.63
2023-02-13T00:10:05.714Z,22.70
2023-02-13T00:12:32.268Z,23.63
2023-02-13T00:14:59.262Z,24.13
2023-02-13T00:17:26.254Z,23.33
2023-02-13T00:19:52.850Z,23.00
2023-02-13T00:22:19.430Z,23.05
2023-02-13T00:24:46.297Z,24.95
2023-02-13T00:27:12.996Z,23.83
2023-02-13T00:29:39.683Z,23.88
2023-02-13T00:32:06.590Z,23.50
2023-02-13T00:34:33.372Z,22.85
2023-02-13T00:37:00.093Z,23.52
2023-02-13T00:39:26.744Z,23.85
2023-02-13T00:41:53.274Z,24.80
2023-02-13T00:44:20.027Z,24.60
2023-02-13T00:46:46.639Z,25.20
2023-02-13T00:49:13.239Z,25.95
2023-02-13T00:51:39.850Z,26.00
2023-02-13T00:54:06.430Z,25.73
2023-02-13T00:56:33.305Z,27.08
2023-02-13T00:58:59.888Z,25.13
2023-02-13T01:01:26.487Z,26.88
2023-02-13T01:03:53.173Z,27.83
2023-02-13T01:06:19.836Z,26.65
2023-02-13T01:08:46.394Z,26.92
2023-02-13T01:11:13.166Z,27.88
2023-02-13T01:13:39.760Z,29.55
2023-02-13T01:16:06.858Z,29.17
2023-02-13T01:18:33.441Z,28.08
2023-02-13T01:21:06.660Z,26.88
2023-02-13T01:23:35.733Z,28.52
2023-02-13T01:26:07.645Z,29.40
2023-02-13T01:31:01.727Z,27.70
2023-02-13T01:33:29.734Z,29.30
2023-02-13T01:35:56.536Z,29.10
2023-02-13T01:38:23.173Z,30.00
2023-02-13T01:40:52.714Z,30.42
2023-02-13T01:43:23.480Z,29.70
2023-02-13T01:45:55.198Z,29.17
2023-02-13T01:48:26.286Z,30.42
2023-02-13T01:51:01.944Z,29.43
2023-02-13T01:53:43.897Z,29.35
2023-02-13T01:56:17.848Z,31.00
2023-02-13T01:58:47.272Z,30.25
2023-02-13T02:01:13.857Z,30.00
2023-02-13T02:03:45.598Z,30.80
2023-02-13T02:06:18.883Z,31.67
2023-02-13T02:08:49.132Z,30.90
2023-02-13T02:11:22.894Z,30.50
2023-02-13T02:13:50.449Z,31.73
2023-02-13T02:16:17.152Z,31.90
2023-02-13T02:18:46.373Z,32.83
2023-02-13T02:21:51.925Z,31.80
2023-02-13T02:24:40.079Z,32.15
2023-02-13T02:27:41.930Z,35.78
2023-02-13T02:30:26.735Z,31.65
2023-02-13T02:33:16.867Z,32.40
2023-02-13T02:35:48.384Z,32.42
2023-02-13T02:38:51.771Z,32.50
2023-02-13T02:41:42.837Z,33.75
2023-02-13T02:44:51.324Z,33.67
2023-02-13T02:47:53.573Z,33.50
2023-02-13T02:50:43.142Z,36.75
2023-02-13T02:53:35.242Z,35.17
2023-02-13T02:56:09.812Z,35.35
2023-02-13T02:59:14.504Z,33.65
2023-02-13T03:02:00.983Z,34.35
2023-02-13T03:04:58.374Z,33.35
2023-02-13T03:07:25.120Z,34.47
2023-02-13T03:10:14.344Z,35.08
2023-02-13T03:13:14.186Z,35.92
2023-02-13T03:16:02.292Z,32.67
2023-02-13T03:18:55.231Z,31.92
2023-02-13T03:22:08.643Z,33.50
2023-02-13T03:24:50.560Z,32.03
2023-02-13T03:28:05.256Z,32.72
2023-02-13T03:30:53.121Z,32.60
2023-02-13T03:33:28.771Z,33.08
2023-02-13T03:36:26.058Z,32.53
2023-02-13T03:38:55.277Z,32.03
2023-02-13T03:41:55.879Z,32.28
2023-02-13T03:44:28.166Z,32.88
2023-02-13T03:46:59.324Z,32.83
2023-02-13T03:49:53.591Z,33.60
2023-02-13T03:52:44.446Z,31.42
2023-02-13T03:55:42.657Z,32.70
2023-02-13T03:58:42.562Z,33.30
2023-02-13T04:01:11.953Z,33.38
2023-02-13T04:03:54.414Z,31.55
2023-02-13T04:06:31.560Z,31.92
2023-02-13T04:08:58.460Z,32.35
2023-02-13T04:11:55.599Z,33.22
2023-02-13T04:14:28.991Z,33.03
2023-02-13T04:17:05.636Z,31.80
2023-02-13T04:19:33.122Z,33.42
2023-02-13T04:22:01.709Z,32.90
2023-02-13T04:24:29.199Z,31.63
2023-02-13T04:26:56.298Z,32.03
2023-02-13T04:29:23.984Z,32.42
2023-02-13T04:31:50.793Z,32.42
2023-02-13T04:34:18.126Z,31.77
2023-02-13T04:36:44.726Z,32.40
2023-02-13T04:39:11.798Z,31.80
2023-02-13T04:41:38.354Z,30.77
2023-02-13T04:44:05.088Z,31.27
2023-02-13T04:46:31.810Z,31.17
2023-02-13T04:48:58.437Z,32.20
2023-02-13T04:51:24.993Z,30.65
2023-02-13T04:53:51.521Z,31.15
2023-02-13T04:56:19.825Z,29.98
2023-02-13T04:58:46.640Z,29.38
2023-02-13T05:01:14.489Z,30.33
2023-02-13T05:03:41.499Z,29.45
2023-02-13T05:06:08.252Z,29.55
2023-02-13T05:08:35.484Z,29.85
2023-02-13T05:11:02.304Z,29.80
2023-02-13T05:13:28.868Z,28.58
2023-02-13T05:15:55.501Z,30.42
2023-02-13T05:18:22.139Z,28.88
2023-02-13T05:21:08.650Z,30.17
2023-02-13T05:23:35.415Z,29.15
2023-02-13T05:26:02.302Z,28.75
2023-02-13T05:28:47.292Z,27.83
2023-02-13T05:31:14.091Z,29.58
2023-02-13T05:33:40.731Z,28.55
2023-02-13T05:36:08.019Z,28.88
2023-02-13T05:38:35.374Z,29.25
2023-02-13T05:41:02.538Z,29.45
2023-02-13T05:43:30.231Z,28.58
2023-02-13T05:46:07.647Z,29.17
2023-02-13T05:48:35.132Z,29.15
2023-02-13T05:51:01.947Z,28.85
2023-02-13T05:53:29.939Z,27.63
2023-02-13T05:55:56.770Z,28.15
2023-02-13T05:58:23.649Z,21.27
2023-02-13T06:00:50.419Z,19.65
2023-02-13T06:03:17.140Z,20.58
2023-02-13T06:05:43.713Z,16.30
2023-02-13T06:08:10.308Z,16.83
2023-02-13T06:10:37.062Z,17.23
2023-02-13T06:13:03.675Z,17.55
2023-02-13T06:15:30.260Z,19.48
2023-02-13T06:17:56.824Z,18.98
2023-02-13T06:20:23.382Z,18.80
2023-02-13T06:22:51.226Z,20.35
2023-02-13T06:25:18.324Z,21.88
2023-02-13T06:27:44.994Z,21.40
2023-02-13T06:30:12.423Z,22.00
2023-02-13T06:32:39.027Z,22.35
2023-02-13T06:35:06.338Z,21.83
2023-02-13T06:37:33.327Z,22.23
2023-02-13T06:39:59.868Z,22.38
2023-02-13T06:42:26.457Z,22.73
2023-02-13T06:44:53.044Z,24.23
2023-02-13T06:47:19.820Z,23.20
2023-02-13T06:49:46.374Z,24.60
2023-02-13T06:52:12.981Z,23.65
2023-02-13T06:54:47.240Z,24.55
2023-02-13T06:57:14.547Z,23.25
2023-02-13T06:59:41.090Z,24.85
2023-02-13T07:02:13.147Z,24.08
2023-02-13T07:04:40.226Z,23.98
2023-02-13T07:07:06.884Z,24.77
2023-02-13T07:09:33.492Z,25.20
2023-02-13T07:12:03.923Z,25.65
2023-02-13T07:14:30.513Z,25.77
2023-02-13T07:16:57.867Z,29.33
2023-02-13T07:19:24.457Z,30.15
2023-02-13T07:21:51.154Z,27.65
2023-02-13T07:24:17.733Z,29.20
2023-02-13T07:26:44.312Z,29.98
2023-02-13T07:29:12.252Z,27.10
2023-02-13T07:31:39.945Z,26.20
2023-02-13T07:34:07.316Z,24.92
2023-02-13T07:36:34.001Z,24.77
2023-02-13T07:39:00.557Z,26.92
2023-02-13T07:41:27.172Z,24.42
2023-02-13T07:43:54.732Z,25.73
2023-02-13T07:46:21.461Z,25.30
2023-02-13T07:48:48.161Z,24.40
2023-02-13T07:51:15.023Z,27.27
2023-02-13T07:53:41.561Z,26.58
2023-02-13T07:56:09.781Z,26.67
2023-02-13T07:58:37.682Z,29.10
2023-02-13T08:01:09.738Z,27.35
2023-02-13T08:03:36.781Z,28.25
2023-02-13T08:06:04.414Z,26.50
2023-02-13T08:08:31.246Z,27.00
2023-02-13T08:11:17.095Z,27.05
2023-02-13T08:13:44.285Z,25.35
2023-02-13T08:16:10.869Z,24.83
2023-02-13T08:18:37.447Z,25.52
2023-02-13T08:21:04.717Z,25.05
2023-02-13T08:23:31.388Z,26.52
2023-02-13T08:26:02.101Z,24.98
2023-02-13T08:28:31.945Z,23.63
2023-02-13T08:30:58.630Z,25.35
2023-02-13T08:33:25.347Z,25.83
2023-02-13T08:35:51.885Z,26.98
2023-02-13T08:38:18.553Z,24.85
2023-02-13T08:40:45.166Z,23.70
2023-02-13T08:43:11.712Z,23.52
2023-02-13T08:45:38.465Z,22.55
2023-02-13T08:48:05.176Z,22.25
2023-02-13T08:50:31.936Z,22.08
2023-02-13T08:52:59.228Z,21.50
2023-02-13T08:55:27.094Z,20.98
2023-02-13T08:57:53.705Z,20.45
2023-02-13T09:00:20.808Z,19.63
2023-02-13T09:02:47.420Z,20.38
2023-02-13T09:05:14.100Z,20.67
2023-02-13T09:07:40.638Z,19.27
2023-02-13T09:10:07.830Z,20.08
2023-02-13T09:12:34.410Z,19.85
2023-02-13T09:15:00.963Z,18.77
2023-02-13T09:17:27.552Z,19.40
2023-02-13T09:19:54.118Z,19.67
2023-02-13T09:22:20.661Z,19.13
2023-02-13T09:24:47.223Z,19.38
2023-02-13T09:27:13.864Z,20.15
2023-02-13T09:29:40.439Z,18.98
2023-02-13T09:32:07.197Z,19.88
2023-02-13T09:34:33.891Z,19.75
2023-02-13T09:37:00.528Z,19.77
2023-02-13T09:39:27.080Z,18.60
2023-02-13T09:41:54.780Z,19.40
2023-02-13T09:44:43.382Z,19.77
2023-02-13T09:47:36.476Z,18.40
2023-02-13T09:50:15.025Z,19.60
2023-02-13T09:52:44.579Z,19.60
2023-02-13T09:55:25.228Z,20.23
2023-02-13T09:58:20.893Z,19.23
2023-02-13T10:00:56.823Z,19.15
2023-02-13T10:03:36.421Z,18.42
2023-02-13T10:06:26.118Z,20.58
2023-02-13T10:09:02.888Z,20.13
2023-02-13T10:11:40.846Z,20.38
2023-02-13T10:14:13.561Z,20.05
2023-02-13T10:16:53.668Z,20.63
2023-02-13T10:19:36.436Z,18.63
2023-02-13T10:22:16.804Z,20.52
2023-02-13T10:24:52.384Z,19.60
2023-02-13T10:27:18.877Z,18.95
2023-02-13T10:30:06.883Z,18.88
2023-02-13T10:33:21.055Z,18.85
2023-02-13T10:36:07.012Z,17.85
2023-02-13T10:38:39.566Z,18.13
2023-02-13T10:41:15.477Z,17.40
2023-02-13T10:44:25.351Z,18.95
2023-02-13T10:47:10.752Z,18.40
2023-02-13T10:49:55.355Z,30.88
2023-02-13T10:53:00.138Z,108.45
2023-02-13T10:55:32.723Z,31.17
2023-02-13T10:58:14.290Z,26.63
2023-02-13T11:00:44.486Z,29.58
2023-02-13T11:03:30.315Z,21.02
2023-02-13T11:05:59.914Z,29.75
2023-02-13T11:08:40.819Z,61.83
2023-02-13T11:11:34.494Z,31.65
2023-02-13T11:14:10.055Z,27.45
2023-02-13T11:16:57.444Z,42.42
2023-02-13T11:19:52.015Z,20.23
2023-02-13T11:22:30.504Z,23.00
2023-02-13T11:25:19.208Z,19.55
2023-02-13T11:27:47.879Z,19.13
2023-02-13T11:30:23.186Z,20.05
2023-02-13T11:33:02.421Z,22.27
2023-02-13T11:35:32.516Z,20.52
2023-02-13T11:38:15.725Z,19.15
2023-02-13T11:40:45.082Z,58.17
2023-02-13T11:43:29.195Z,35.70
2023-02-13T11:46:08.595Z,20.40
2023-02-13T11:48:35.760Z,24.63
2023-02-13T11:51:03.590Z,19.38
2023-02-13T11:53:36.464Z,19.08
2023-02-13T11:56:11.096Z,22.30
2023-02-13T11:58:38.584Z,21.27
2023-02-13T12:01:25.799Z,20.45
2023-02-13T12:04:05.261Z,18.60
2023-02-13T12:06:39.693Z,23.65
2023-02-13T12:09:15.371Z,21.30
2023-02-13T12:11:53.715Z,19.00
2023-02-13T12:14:23.015Z,19.27
2023-02-13T12:17:07.218Z,17.75
2023-02-13T12:19:41.987Z,17.55
2023-02-13T12:22:40.568Z,17.10
2023-02-13T12:25:45.433Z,15.90
2023-02-13T12:28:16.904Z,17.38
2023-02-13T12:30:52.683Z,16.70
2023-02-13T12:33:25.194Z,15.18
2023-02-13T12:36:25.265Z,16.10
2023-02-13T12:39:18.265Z,14.68
2023-02-13T12:42:12.350Z,15.85
2023-02-13T12:44:57.726Z,15.85
2023-02-13T12:47:29.217Z,15.15
2023-02-13T12:50:14.169Z,18.00
2023-02-13T12:52:52.068Z,16.17
2023-02-13T12:55:49.000Z,15.93
2023-02-13T12:58:33.832Z,15.70
2023-02-13T13:01:37.713Z,16.02
2023-02-13T13:04:36.601Z,15.45
2023-02-13T13:07:06.144Z,16.92
2023-02-13T13:09:56.037Z,15.38
2023-02-13T13:12:25.570Z,15.82
2023-02-13T13:15:23.218Z,16.58
2023-02-13T13:18:02.086Z,16.10
2023-02-13T13:21:10.034Z,16.77
2023-02-13T13:23:39.435Z,15.82
2023-02-13T13:26:26.268Z,16.58
2023-02-13T13:28:56.572Z,17.38
2023-02-13T13:31:26.335Z,17.73
2023-02-13T13:33:58.356Z,23.88
2023-02-13T13:36:46.217Z,18.33
2023-02-13T13:39:29.824Z,30.25
2023-02-13T13:42:01.053Z,13.05
2023-02-13T13:44:42.789Z,23.23
2023-02-13T13:47:39.338Z,21.58
2023-02-13T13:50:18.017Z,48.30
2023-02-13T13:53:05.859Z,26.67
2023-02-13T13:55:50.518Z,19.67
2023-02-13T13:58:31.308Z,15.02
2023-02-13T14:01:24.197Z,12.82
2023-02-13T14:03:52.103Z,12.35
2023-02-13T14:06:22.187Z,12.60
2023-02-13T14:08:49.366Z,12.15
2023-02-13T14:11:36.183Z,11.10
2023-02-13T14:14:27.870Z,11.75
2023-02-13T14:16:59.787Z,11.57
2023-02-13T14:22:19.010Z,12.70
2023-02-13T14:24:55.531Z,12.25
2023-02-13T14:27:34.213Z,13.05
2023-02-13T14:30:01.947Z,30.75
2023-02-13T14:32:31.438Z,38.95
2023-02-13T14:35:02.397Z,12.48
2023-02-13T14:37:47.937Z,12.00
2023-02-13T14:40:20.269Z,11.80
2023-02-13T14:42:53.755Z,11.57
2023-02-13T14:45:27.321Z,11.45
2023-02-13T14:47:57.206Z,11.40
2023-02-13T14:50:32.690Z,11.65
2023-02-13T14:53:03.937Z,11.70
2023-02-13T14:55:42.947Z,11.25
2023-02-13T14:58:20.548Z,11.68
2023-02-13T15:00:55.010Z,11.98
2023-02-13T15:03:54.544Z,12.23
2023-02-13T15:06:34.063Z,11.93
2023-02-13T15:09:04.698Z,11.45
2023-02-13T15:11:45.356Z,11.35
2023-02-13T15:14:19.097Z,11.10
2023-02-13T15:16:50.697Z,12.55
2023-02-13T15:19:20.182Z,12.02
2023-02-13T15:21:53.947Z,12.63
2023-02-13T15:24:25.034Z,12.13
2023-02-13T15:27:20.191Z,12.18
2023-02-13T15:30:12.551Z,13.32
2023-02-13T15:35:31.111Z,12.27
2023-02-13T15:37:59.124Z,11.93
2023-02-13T15:40:37.194Z,13.68
2023-02-13T15:43:04.037Z,12.45
2023-02-13T15:45:30.869Z,11.68
2023-02-13T15:47:58.099Z,13.27
2023-02-13T15:50:24.615Z,13.63
2023-02-13T15:52:51.751Z,13.45
2023-02-13T15:55:21.459Z,14.52
2023-02-13T15:57:48.795Z,16.48
2023-02-13T16:00:27.507Z,15.27
2023-02-13T16:02:55.992Z,13.73
2023-02-13T16:05:38.893Z,14.65
2023-02-13T16:08:27.462Z,14.90
2023-02-13T16:11:29.799Z,15.57
2023-02-13T16:13:56.329Z,17.02
2023-02-13T16:16:24.109Z,17.85
2023-02-13T16:18:52.128Z,17.45
2023-02-13T16:21:29.196Z,18.08
2023-02-13T16:24:02.477Z,18.60
2023-02-13T16:26:29.281Z,20.27
2023-02-13T16:28:55.918Z,19.15
2023-02-13T16:31:22.819Z,19.27
2023-02-13T16:33:49.620Z,19.77
2023-02-13T16:36:16.138Z,19.50
2023-02-13T16:38:48.028Z,19.35
2023-02-13T16:41:17.289Z,19.33
2023-02-13T16:44:04.138Z,19.08
2023-02-13T16:46:41.231Z,20.63
2023-02-13T16:49:10.668Z,20.15
2023-02-13T16:51:58.485Z,21.55
2023-02-13T16:54:38.028Z,21.63
2023-02-13T16:57:20.845Z,21.70
2023-02-13T16:59:47.356Z,21.75
2023-02-13T17:02:14.421Z,21.85
2023-02-13T17:04:50.269Z,21.73
2023-02-13T17:07:30.024Z,21.13
2023-02-13T17:10:20.650Z,21.88
2023-02-13T17:12:48.601Z,19.95
2023-02-13T17:15:18.454Z,20.10
2023-02-13T17:17:45.875Z,19.70
2023-02-13T17:20:17.973Z,19.08
2023-02-13T17:22:46.482Z,19.02
2023-02-13T17:25:29.510Z,19.50
2023-02-13T17:27:58.893Z,19.02
2023-02-13T17:30:29.152Z,19.75
2023-02-13T17:32:59.563Z,19.73
2023-02-13T17:35:26.407Z,19.73
2023-02-13T17:37:53.087Z,19.90
2023-02-13T17:40:21.974Z,20.10
2023-02-13T17:42:53.341Z,20.02
2023-02-13T17:45:22.907Z,20.65
2023-02-13T17:47:49.748Z,21.70
2023-02-13T17:50:17.503Z,20.40
2023-02-13T17:52:45.819Z,21.42
2023-02-13T17:55:26.969Z,22.10
2023-02-13T17:57:56.547Z,22.42
2023-02-13T18:00:28.014Z,22.38
2023-02-13T18:02:55.317Z,21.98
2023-02-13T18:05:22.465Z,21.73
2023-02-13T18:07:49.557Z,21.70
2023-02-13T18:10:37.254Z,23.20
2023-02-13T18:13:04.538Z,23.75
2023-02-13T18:15:36.246Z,24.45
2023-02-13T18:18:02.857Z,24.75
2023-02-13T18:20:29.872Z,24.30
2023-02-13T18:22:56.405Z,23.08
2023-02-13T18:25:23.724Z,22.95
2023-02-13T18:27:50.307Z,22.08
2023-02-13T18:30:19.721Z,25.52
2023-02-13T18:32:51.928Z,24.65
2023-02-13T18:35:18.997Z,23.13
2023-02-13T18:37:45.668Z,20.58
2023-02-13T18:40:14.995Z,23.38
2023-02-13T18:42:41.634Z,21.38
2023-02-13T18:45:08.720Z,22.42
2023-02-13T18:47:35.324Z,19.80
2023-02-13T18:50:01.928Z,20.00
2023-02-13T18:52:28.470Z,19.27
2023-02-13T18:54:55.614Z,19.33
2023-02-13T18:57:22.473Z,18.55
2023-02-13T18:59:49.045Z,18.10
2023-02-13T19:02:15.685Z,17.58
2023-02-13T19:04:42.458Z,17.02
2023-02-13T19:07:09.010Z,16.65
2023-02-13T19:09:40.045Z,17.13
2023-02-13T19:12:07.418Z,17.93
2023-02-13T19:14:34.041Z,17.33
2023-02-13T19:17:00.683Z,18.27
2023-02-13T19:19:27.297Z,19.35
2023-02-13T19:21:53.884Z,20.63
2023-02-13T19:24:20.455Z,20.75
2023-02-13T19:26:47.401Z,21.88
2023-02-13T19:29:13.979Z,20.00
2023-02-13T19:31:41.400Z,19.33
2023-02-13T19:34:08.194Z,19.27
2023-02-13T19:36:34.998Z,19.45
2023-02-13T19:39:04.086Z,19.30
2023-02-13T19:41:31.627Z,20.98
2023-02-13T19:43:58.658Z,23.20
2023-02-13T19:46:30.270Z,23.27
2023-02-13T19:48:57.065Z,23.65
2023-02-13T19:51:27.678Z,23.58
2023-02-13T19:54:12.876Z,22.65
2023-02-13T19:56:40.815Z,24.20
2023-02-13T19:59:10.539Z,23.88
2023-02-13T20:01:37.225Z,24.35
2023-02-13T20:04:03.759Z,24.98
2023-02-13T20:06:35.012Z,23.85
2023-02-13T20:09:04.787Z,26.05
2023-02-13T20:11:31.422Z,26.20
2023-02-13T20:14:03.962Z,25.92
2023-02-13T20:16:33.075Z,26.67
2023-02-13T20:19:07.030Z,26.00
2023-02-13T20:21:35.145Z,27.02
2023-02-13T20:24:03.134Z,26.58
2023-02-13T20:26:30.643Z,26.63
2023-02-13T20:28:59.957Z,27.00
2023-02-13T20:31:29.073Z,27.75
2023-02-13T20:33:56.299Z,26.75
2023-02-13T20:36:25.986Z,29.10
2023-02-13T20:38:55.131Z,27.95
2023-02-13T20:41:24.461Z,29.08
2023-02-13T20:43:52.195Z,29.10
2023-02-13T20:46:19.215Z,30.48
2023-02-13T20:48:48.015Z,29.15
2023-02-13T20:51:16.122Z,30.00
2023-02-13T20:53:43.901Z,31.23
2023-02-13T20:56:13.519Z,31.13
2023-02-13T20:58:41.668Z,29.65
2023-02-13T21:01:35.688Z,32.42
2023-02-13T21:04:02.443Z,31.75
2023-02-13T21:06:31.715Z,31.60
2023-02-13T21:08:58.924Z,33.97
2023-02-13T21:11:26.330Z,32.72
2023-02-13T21:13:52.870Z,32.00
2023-02-13T21:16:22.961Z,32.72
2023-02-13T21:18:52.373Z,32.03
2023-02-13T21:21:20.261Z,33.90
2023-02-13T21:23:47.539Z,32.78
2023-02-13T21:26:17.067Z,31.88
2023-02-13T21:28:48.480Z,31.60
2023-02-13T21:31:18.918Z,33.75
2023-02-13T21:33:46.056Z,33.53
2023-02-13T21:36:13.371Z,32.05
2023-02-13T21:38:40.950Z,34.83
2023-02-13T21:41:13.315Z,35.70
2023-02-13T21:43:42.068Z,34.53
2023-02-13T21:46:14.581Z,34.58
2023-02-13T21:48:42.011Z,36.28
2023-02-13T21:51:17.134Z,37.42
2023-02-13T21:53:44.970Z,36.15
2023-02-13T21:56:14.214Z,33.92
2023-02-13T21:58:42.424Z,35.72
2023-02-13T22:01:25.400Z,35.22
2023-02-13T22:04:00.141Z,35.95
2023-02-13T22:06:28.729Z,36.20
2023-02-13T22:09:03.904Z,37.20
2023-02-13T22:11:30.846Z,36.08
2023-02-13T22:14:01.697Z,34.88
2023-02-13T22:16:30.098Z,34.00
2023-02-13T22:18:57.149Z,34.83
2023-02-13T22:21:25.433Z,35.72
2023-02-13T22:23:53.143Z,39.50
2023-02-13T22:26:19.710Z,37.72
2023-02-13T22:28:47.280Z,37.58
2023-02-13T22:31:15.103Z,39.22
2023-02-13T22:33:42.986Z,40.25
2023-02-13T22:36:13.140Z,38.53
2023-02-13T22:38:41.100Z,40.97
2023-02-13T22:41:14.291Z,38.70
2023-02-13T22:43:41.816Z,37.65
2023-02-13T22:46:10.717Z,41.42
2023-02-13T22:48:38.998Z,40.08
2023-02-13T22:51:08.867Z,38.08
2023-02-13T22:53:36.617Z,39.38
2023-02-13T22:56:04.863Z,39.03
2023-02-13T22:58:31.664Z,45.15
2023-02-13T23:00:58.836Z,46.38
2023-02-13T23:03:25.828Z,50.20
2023-02-13T23:05:52.413Z,47.25
2023-02-13T23:08:19.377Z,44.35
2023-02-13T23:11:08.472Z,43.97
2023-02-13T23:13:35.438Z,43.75
2023-02-13T23:16:02.035Z,43.00
2023-02-13T23:18:28.717Z,45.20
2023-02-13T23:20:55.263Z,44.22
2023-02-13T23:23:22.380Z,46.22
2023-02-13T23:25:48.977Z,48.83
2023-02-13T23:28:15.617Z,50.38
2023-02-13T23:30:42.314Z,49.25
2023-02-13T23:33:08.975Z,45.60
2023-02-13T23:35:35.550Z,42.85
2023-02-13T23:38:02.129Z,46.35
2023-02-13T23:40:28.755Z,48.35
2023-02-13T23:42:55.276Z,47.05
2023-02-13T23:45:21.830Z,45.78
2023-02-13T23:47:48.391Z,45.92
2023-02-13T23:50:14.977Z,45.58
2023-02-13T23:52:41.529Z,45.80
2023-02-13T23:55:08.433Z,45.78
2023-02-13T23:57:35.631Z,51.60
